Billerica, Massachusetts
Current Conditions -  °F | °C
As of 9:56 AM on Wednesday 22 Oct 2014 (Local Time) from KBED Reporting Station
Light Rain Light Rain  
Wind Chill: 51°   Ceiling: 500
Heat Index: 51°   Visibility: 2mi
Dew Point: 50°   Wind: 17mph
Humidity: 96%   Direction: 30°NNE
Pressure: 30.03"   Gusts: 24mph
Location:  42.56°N, 71.27°W
Report Text: KBED 221356Z 03015G21KT 2SM -RA BR OVC005 11/10 A3003 RMK AO2 SLP181 P0000 T01060100
Loading
Personal Weather Stations






























Interactive Weather Map
Tropical Storm Tracking
New forecast layout! Learn more

10-Day Weather Forecast

Advertisements
Track Severe Weather on mobile